KAIT

Aitkin Municipal-Steve Kurtz Field Airport

Aitkin, Minnesota, USA
METAR KAIT 232215Z AUTO 27005KT 10SM OVC026 M02/M07 A3013 RMK AO2 P0001
Observed Flight Rules
Feb-23 @ 22:15 UTC (22 minutes ago) Marginal Visual Flight Rules
Wind Visibility Clouds
270° at 5 knots 10 miles
  • Overcast at 2,600' AGL
Temperatures Readings Precipitation
Current -2°C / 28°F
Dewpoint -7°C / 19°F
Humidity 69%
Altimeter 30.13" Hg
Pressure 1020 hPa
Elevation 367
Current Rain 0.01
METAR KAIT 232215Z AUTO 27005KT 10SM OVC026 M02/M07 A3013 RMK AO2 P0001
Observed Flight Rules
Feb-23 @ 22:15 UTC
(22 minutes ago)
MVFR
Wind Visibility
270° at 5 knots 10 miles
Clouds
  • Overcast at 2,600' AGL
Temperature Dewpoint
-2°C / 28°F -7°C / 19°F
Humidity Altimeter Pressure
69% 30.13" Hg 1020 hPa
Current Rain
0.01